createdAt,value
2022-11-10T00:15:38.999Z,3.4
2022-11-10T00:45:57.169Z,3.9
2022-11-10T01:16:14.753Z,4.1
2022-11-10T01:46:33.261Z,4.2
2022-11-10T02:16:51.800Z,3.6
2022-11-10T02:47:08.978Z,2.7
2022-11-10T03:17:27.336Z,3.4
2022-11-10T03:47:44.675Z,4.2
2022-11-10T04:48:20.741Z,4.4
2022-11-10T05:18:38.792Z,4.5
2022-11-10T05:48:55.887Z,5.1
2022-11-10T06:19:12.672Z,4.3
2022-11-10T06:49:29.973Z,4.7
2022-11-10T07:19:49.104Z,4
2022-11-10T07:50:09.681Z,6
2022-11-10T08:20:38.171Z,3.9
2022-11-10T08:50:53.941Z,3.7
2022-11-10T09:21:11.932Z,4.6
2022-11-10T09:51:32.003Z,2.9
2022-11-10T10:21:50.891Z,2.9
2022-11-10T10:52:11.252Z,2.6
2022-11-10T11:22:31.782Z,2.2
2022-11-10T11:52:51.215Z,2.3
2022-11-10T12:23:08.326Z,2.4
2022-11-10T12:53:24.559Z,3.3
2022-11-10T13:23:42.604Z,3.8
2022-11-10T13:54:00.240Z,2.9
2022-11-10T14:24:17.608Z,2.3
2022-11-10T14:54:33.911Z,3.1
2022-11-10T15:24:52.775Z,4.4
2022-11-10T15:55:09.213Z,4
2022-11-10T16:25:27.806Z,5.2
2022-11-10T16:55:44.692Z,6.1
2022-11-10T17:26:02.441Z,6
2022-11-10T17:56:18.252Z,6.7
2022-11-10T18:26:35.775Z,6.6
2022-11-10T18:56:53.722Z,8.1
2022-11-10T19:27:11.804Z,9.8
2022-11-10T19:57:28.216Z,12.6
2022-11-10T20:27:45.535Z,9
2022-11-10T20:58:04.567Z,8.7
2022-11-10T21:28:21.473Z,12.1
2022-11-10T21:58:38.110Z,14.1
2022-11-10T22:28:55.047Z,10.3
2022-11-10T22:59:11.883Z,11.1
2022-11-10T23:29:28.944Z,11.9
